Otis, Oregon
Current Conditions -  °F | °C
As of 3:55 AM on Thursday 27 Nov 2014 (Local Time) from KTMK Reporting Station
Drizzle Drizzle  
Wind Chill: 59°   Ceiling: 1900
Heat Index: 59°   Visibility: 7mi
Dew Point: 55°   Wind: 5mph
Humidity: 88%   Direction: 150°SSE
Pressure: 29.95"   Gusts: NA
Location:  45.02°N, 123.95°W
Report Text: KTMK 271155Z AUTO 15004KT 7SM +DZ OVC019 15/13 A2995 RMK AO2 P0001
Loading
Personal Weather Stations






























Interactive Weather Map New forecast layout! Learn more

10-Day Weather Forecast

Advertisements
Track Severe Weather on mobile